Terminal Aerodrome Forecast
Issued by NWS Wilmington, NC

Home | Current Version | Previous Version | Text Only | Print | Product List | Glossary On
Versions: 1 2 3 4 5 6 7 8 9 10 11 12 13 14 15 16
000
FTUS42 KILM 302330
TAFFLO
TAF
KFLO 302330Z 3100/3124 33005KT P6SM VCSH SCT040 BKN250
     FM310600 VRB04KT P6SM BKN100
     FM311200 36005KT P6SM SCT040 BKN250
     FM311800 36004KT P6SM FEW250 PROB30 3118/3121 P6SM -TSRA
      BKN050CB
     FM312100 20006KT P6SM SCT050=

USA.gov is the U.S. government's official web portal to all federal, state and local government web resources and services.